createdAt,value
2019-03-22T00:00:09.455Z,0
2019-03-22T00:01:09.413Z,0
2019-03-22T00:02:09.443Z,0
2019-03-22T00:03:09.403Z,0
2019-03-22T00:04:09.420Z,0
2019-03-22T00:05:09.384Z,0
2019-03-22T00:06:09.391Z,0
2019-03-22T00:07:09.359Z,0
2019-03-22T00:08:09.373Z,0
2019-03-22T00:09:09.345Z,0
2019-03-22T00:10:09.295Z,0
2019-03-22T00:11:09.319Z,0
2019-03-22T00:12:11.461Z,0
2019-03-22T00:13:09.282Z,0
2019-03-22T00:14:09.034Z,0
2019-03-22T00:15:09.246Z,0
2019-03-22T00:16:09.247Z,0
2019-03-22T00:17:09.197Z,0
2019-03-22T00:18:09.229Z,0
2019-03-22T00:19:09.175Z,0
2019-03-22T00:20:09.198Z,0
2019-03-22T00:21:09.161Z,0
2019-03-22T00:22:09.201Z,0
2019-03-22T00:23:09.124Z,0
2019-03-22T00:24:09.122Z,0
2019-03-22T00:25:09.110Z,0
2019-03-22T00:26:09.146Z,0
2019-03-22T00:27:20.580Z,0
2019-03-22T00:28:09.066Z,0
2019-03-22T00:29:08.813Z,0
2019-03-22T00:30:09.022Z,0
2019-03-22T00:31:09.073Z,0
2019-03-22T00:32:09.015Z,0
2019-03-22T00:33:09.002Z,0
2019-03-22T00:34:09.014Z,0
2019-03-22T00:35:08.971Z,0
2019-03-22T00:36:08.986Z,0
2019-03-22T00:37:08.952Z,0
2019-03-22T00:38:08.959Z,0
2019-03-22T00:39:08.903Z,0
2019-03-22T00:40:08.681Z,0
2019-03-22T00:41:08.894Z,0
2019-03-22T00:42:08.902Z,0
2019-03-22T00:43:08.885Z,0
2019-03-22T00:44:08.859Z,0
2019-03-22T00:45:08.855Z,0
2019-03-22T00:46:08.811Z,0
2019-03-22T00:47:08.832Z,0
2019-03-22T00:48:08.796Z,0
2019-03-22T00:49:08.573Z,0
2019-03-22T00:50:08.750Z,0
2019-03-22T00:51:08.777Z,0
2019-03-22T00:52:08.781Z,0
2019-03-22T00:53:08.755Z,0
2019-03-22T00:54:08.698Z,0
2019-03-22T00:55:08.748Z,0
2019-03-22T00:56:08.702Z,0
2019-03-22T00:57:08.691Z,0
2019-03-22T00:58:08.644Z,0
2019-03-22T00:59:08.672Z,0
2019-03-22T01:00:08.710Z,0
2019-03-22T01:01:08.632Z,0
2019-03-22T01:02:08.609Z,0
2019-03-22T01:03:08.618Z,0
2019-03-22T01:04:08.582Z,0
2019-03-22T01:05:08.602Z,0
2019-03-22T01:06:08.534Z,0
2019-03-22T01:07:08.562Z,0
2019-03-22T01:08:08.509Z,0
2019-03-22T01:09:08.530Z,0
2019-03-22T01:10:08.487Z,0
2019-03-22T01:11:08.514Z,0
2019-03-22T01:12:08.489Z,0
2019-03-22T01:13:08.474Z,0
2019-03-22T01:14:08.423Z,0
2019-03-22T01:15:08.419Z,0
2019-03-22T01:16:08.434Z,0
2019-03-22T01:17:08.418Z,0
2019-03-22T01:18:08.422Z,0
2019-03-22T01:19:08.368Z,0
2019-03-22T01:20:08.380Z,0
2019-03-22T01:21:08.343Z,0
2019-03-22T01:22:08.368Z,0
2019-03-22T01:23:08.315Z,0
2019-03-22T01:24:08.325Z,0
2019-03-22T01:25:08.069Z,0
2019-03-22T01:26:08.272Z,0
2019-03-22T01:27:08.303Z,0
2019-03-22T01:28:08.282Z,0
2019-03-22T01:29:08.268Z,0
2019-03-22T01:30:08.222Z,0
2019-03-22T01:31:08.215Z,0
2019-03-22T01:32:08.236Z,0
2019-03-22T01:33:08.215Z,0
2019-03-22T01:34:08.224Z,0
2019-03-22T01:35:08.176Z,0
2019-03-22T01:36:08.169Z,0
2019-03-22T01:37:08.180Z,0
2019-03-22T01:38:08.137Z,0
2019-03-22T01:39:07.904Z,0
2019-03-22T01:40:08.096Z,0
2019-03-22T01:41:08.113Z,0
2019-03-22T01:42:08.095Z,0
2019-03-22T01:43:08.105Z,0
2019-03-22T01:44:07.826Z,0
2019-03-22T01:45:08.068Z,0
2019-03-22T01:46:08.029Z,0
2019-03-22T01:47:08.097Z,0
2019-03-22T01:48:08.032Z,0
2019-03-22T01:49:08.036Z,0
2019-03-22T01:50:07.979Z,0
2019-03-22T01:51:08.006Z,0
2019-03-22T01:52:07.975Z,0
2019-03-22T01:53:07.991Z,0
2019-03-22T01:54:07.680Z,0
2019-03-22T01:55:07.953Z,0
2019-03-22T01:56:07.904Z,0
2019-03-22T01:57:07.918Z,0
2019-03-22T01:58:07.876Z,0
2019-03-22T01:59:07.662Z,0
2019-03-22T02:00:07.882Z,0
2019-03-22T02:01:07.870Z,0
2019-03-22T02:02:07.833Z,0
2019-03-22T02:03:07.822Z,0
2019-03-22T02:04:07.356Z,0
2019-03-22T02:05:07.836Z,0
2019-03-22T02:06:07.826Z,0
2019-03-22T02:07:07.776Z,0
2019-03-22T02:08:07.790Z,0
2019-03-22T02:09:07.749Z,0
2019-03-22T02:10:07.792Z,0
2019-03-22T02:11:07.751Z,0
2019-03-22T02:12:07.778Z,0
2019-03-22T02:13:07.722Z,0
2019-03-22T02:14:07.733Z,0
2019-03-22T02:15:07.677Z,0
2019-03-22T02:16:07.700Z,0
2019-03-22T02:17:07.683Z,0
2019-03-22T02:18:07.643Z,0
2019-03-22T02:19:07.675Z,0
2019-03-22T02:20:07.652Z,0
2019-03-22T02:21:07.636Z,0
2019-03-22T02:22:07.640Z,0
2019-03-22T02:23:07.586Z,0
2019-03-22T02:24:07.610Z,0
2019-03-22T02:25:07.628Z,0
2019-03-22T02:26:07.619Z,0
2019-03-22T02:27:07.545Z,0
2019-03-22T02:28:11.255Z,0
2019-03-22T02:29:07.299Z,0
2019-03-22T02:30:07.935Z,0
2019-03-22T02:31:07.504Z,0
2019-03-22T02:32:07.517Z,0
2019-03-22T02:33:07.516Z,0
2019-03-22T02:34:07.513Z,0
2019-03-22T02:35:07.547Z,0
2019-03-22T02:36:07.459Z,0
2019-03-22T02:37:07.446Z,0
2019-03-22T02:38:07.423Z,0
2019-03-22T02:39:07.443Z,0
2019-03-22T02:40:07.719Z,0
2019-03-22T02:41:07.397Z,0
2019-03-22T02:42:07.415Z,0
2019-03-22T02:43:07.379Z,0
2019-03-22T02:44:07.463Z,0
2019-03-22T02:45:07.707Z,0
2019-03-22T02:46:07.370Z,0
2019-03-22T02:47:07.330Z,0
2019-03-22T02:48:07.340Z,0
2019-03-22T02:49:07.421Z,0
2019-03-22T02:50:23.020Z,0
2019-03-22T02:51:07.347Z,0
2019-03-22T02:52:07.291Z,0
2019-03-22T02:53:07.286Z,0
2019-03-22T02:54:07.254Z,0
2019-03-22T02:55:07.716Z,0
2019-03-22T02:56:07.771Z,0
2019-03-22T02:57:07.334Z,0
2019-03-22T02:58:21.996Z,0
2019-03-22T02:59:07.251Z,0
2019-03-22T03:00:07.423Z,0
2019-03-22T03:01:07.184Z,0
2019-03-22T03:02:06.921Z,0
2019-03-22T03:03:06.963Z,0
2019-03-22T03:04:07.156Z,0
2019-03-22T03:05:07.151Z,0
2019-03-22T03:06:07.096Z,0
2019-03-22T03:07:07.130Z,0
2019-03-22T03:08:07.134Z,0
2019-03-22T03:09:07.081Z,0
2019-03-22T03:10:07.066Z,0
2019-03-22T03:11:07.083Z,0
2019-03-22T03:12:07.057Z,0
2019-03-22T03:13:07.078Z,0
2019-03-22T03:14:06.773Z,0
2019-03-22T03:15:07.074Z,0
2019-03-22T03:16:06.766Z,0
2019-03-22T03:17:07.016Z,0
2019-03-22T03:18:07.047Z,0
2019-03-22T03:19:07.021Z,0
2019-03-22T03:20:06.979Z,0
2019-03-22T03:21:06.752Z,0
2019-03-22T03:22:06.942Z,0
2019-03-22T03:23:06.944Z,0
2019-03-22T03:24:07.033Z,0
2019-03-22T03:25:06.924Z,0
2019-03-22T03:26:06.933Z,0
2019-03-22T03:27:06.874Z,0
2019-03-22T03:28:06.889Z,0
2019-03-22T03:29:06.873Z,0
2019-03-22T03:30:06.931Z,0
2019-03-22T03:31:06.900Z,0
2019-03-22T03:32:06.889Z,0
2019-03-22T03:33:07.010Z,0
2019-03-22T03:34:06.861Z,0
2019-03-22T03:35:06.917Z,0
2019-03-22T03:36:06.806Z,0
2019-03-22T03:37:06.798Z,0
2019-03-22T03:38:06.766Z,0
2019-03-22T03:39:06.739Z,0
2019-03-22T03:40:06.830Z,0
2019-03-22T03:41:06.815Z,0
2019-03-22T03:42:06.760Z,0
2019-03-22T03:43:06.704Z,0
2019-03-22T03:44:06.724Z,0
2019-03-22T03:45:06.681Z,0
2019-03-22T03:46:06.708Z,0
2019-03-22T03:47:10.094Z,0
2019-03-22T03:48:06.718Z,0
2019-03-22T03:49:06.655Z,0
2019-03-22T03:50:06.691Z,0
2019-03-22T03:51:06.469Z,0
2019-03-22T03:52:06.625Z,0
2019-03-22T03:53:06.624Z,0
2019-03-22T03:54:06.668Z,0
2019-03-22T03:55:06.616Z,0
2019-03-22T03:56:06.577Z,0
2019-03-22T03:57:06.573Z,0
2019-03-22T03:58:06.598Z,0
2019-03-22T03:59:06.566Z,0
2019-03-22T04:00:06.535Z,0
2019-03-22T04:01:06.504Z,0
2019-03-22T04:02:06.544Z,0
2019-03-22T04:03:06.495Z,0
2019-03-22T04:04:06.519Z,0
2019-03-22T04:05:06.523Z,0
2019-03-22T04:06:06.534Z,0
2019-03-22T04:07:06.455Z,0
2019-03-22T04:08:06.464Z,0
2019-03-22T04:09:06.440Z,0
2019-03-22T04:10:06.514Z,0
2019-03-22T04:11:06.434Z,0
2019-03-22T04:12:06.419Z,0
2019-03-22T04:13:06.428Z,0
2019-03-22T04:14:06.369Z,0
2019-03-22T04:15:06.408Z,0
2019-03-22T04:16:06.428Z,0
2019-03-22T04:17:06.404Z,0
2019-03-22T04:18:06.363Z,0
2019-03-22T04:19:06.366Z,0
2019-03-22T04:20:06.326Z,0
2019-03-22T04:21:06.335Z,0
2019-03-22T04:22:06.300Z,0
2019-03-22T04:23:06.320Z,0
2019-03-22T04:24:06.278Z,0
2019-03-22T04:25:06.272Z,0
2019-03-22T04:26:06.308Z,0
2019-03-22T04:27:06.277Z,0
2019-03-22T04:28:06.246Z,0
2019-03-22T04:29:14.815Z,0
2019-03-22T04:30:06.238Z,0
2019-03-22T04:31:06.233Z,0
2019-03-22T04:32:06.202Z,0
2019-03-22T04:33:09.144Z,0
2019-03-22T04:34:06.154Z,0
2019-03-22T04:35:06.186Z,0
2019-03-22T04:36:06.132Z,0
2019-03-22T04:37:06.160Z,0
2019-03-22T04:38:06.127Z,4
2019-03-22T04:39:06.150Z,4
2019-03-22T04:40:06.122Z,0
2019-03-22T04:41:06.111Z,4
2019-03-22T04:42:06.070Z,4
2019-03-22T04:43:06.168Z,4
2019-03-22T04:44:06.118Z,8
2019-03-22T04:45:06.063Z,8
2019-03-22T04:46:06.065Z,8
2019-03-22T04:47:05.776Z,8
2019-03-22T04:48:06.036Z,8
2019-03-22T04:49:06.025Z,8
2019-03-22T04:50:05.982Z,12
2019-03-22T04:51:06.014Z,16
2019-03-22T04:52:05.961Z,16
2019-03-22T04:53:06.311Z,20
2019-03-22T04:54:05.946Z,20
2019-03-22T04:55:05.990Z,24
2019-03-22T04:56:06.010Z,28
2019-03-22T04:57:05.939Z,32
2019-03-22T04:58:05.903Z,40
2019-03-22T04:59:05.898Z,44
2019-03-22T05:00:05.910Z,52
2019-03-22T05:01:05.901Z,60
2019-03-22T05:02:05.870Z,64
2019-03-22T05:03:05.897Z,68
2019-03-22T05:04:06.246Z,72
2019-03-22T05:05:05.645Z,76
2019-03-22T05:06:05.840Z,76
2019-03-22T05:07:05.841Z,80
2019-03-22T05:08:05.799Z,84
2019-03-22T05:09:05.829Z,96
2019-03-22T05:10:05.780Z,104
2019-03-22T05:11:05.808Z,112
2019-03-22T05:12:05.560Z,124
2019-03-22T05:13:05.835Z,136
2019-03-22T05:14:05.732Z,152
2019-03-22T05:15:05.534Z,168
2019-03-22T05:16:05.733Z,184
2019-03-22T05:17:05.716Z,192
2019-03-22T05:18:05.687Z,192
2019-03-22T05:19:05.720Z,192
2019-03-22T05:20:05.693Z,200
2019-03-22T05:21:05.706Z,212
2019-03-22T05:22:05.664Z,228
2019-03-22T05:23:05.694Z,244
2019-03-22T05:24:05.629Z,260
2019-03-22T05:25:05.662Z,276
2019-03-22T05:26:05.607Z,296
2019-03-22T05:27:05.649Z,312
2019-03-22T05:28:05.616Z,324
2019-03-22T05:29:05.614Z,336
2019-03-22T05:30:05.580Z,356
2019-03-22T05:31:05.559Z,376
2019-03-22T05:32:05.579Z,384
2019-03-22T05:33:05.566Z,392
2019-03-22T05:34:05.586Z,396
2019-03-22T05:35:07.359Z,404
2019-03-22T05:36:05.540Z,420
2019-03-22T05:37:05.557Z,436
2019-03-22T05:38:05.539Z,456
2019-03-22T05:39:05.238Z,472
2019-03-22T05:40:05.493Z,484
2019-03-22T05:41:05.558Z,492
2019-03-22T05:42:05.449Z,508
2019-03-22T05:43:05.479Z,512
2019-03-22T05:44:05.204Z,524
2019-03-22T05:45:05.560Z,560
2019-03-22T05:46:05.407Z,608
2019-03-22T05:47:05.400Z,656
2019-03-22T05:48:05.421Z,688
2019-03-22T05:49:05.161Z,704
2019-03-22T05:50:05.500Z,708
2019-03-22T05:51:05.359Z,712
2019-03-22T05:52:05.399Z,720
2019-03-22T05:53:05.342Z,724
2019-03-22T05:54:04.875Z,728
2019-03-22T05:55:05.326Z,728
2019-03-22T05:56:05.358Z,728
2019-03-22T05:57:15.695Z,740
2019-03-22T05:58:05.333Z,756
2019-03-22T05:59:05.288Z,776
2019-03-22T06:00:05.285Z,796
2019-03-22T06:01:05.036Z,812
2019-03-22T06:02:05.302Z,840
2019-03-22T06:03:05.285Z,884
2019-03-22T06:04:05.248Z,924
2019-03-22T06:05:05.230Z,968
2019-03-22T06:06:05.312Z,1036
2019-03-22T06:07:05.202Z,1096
2019-03-22T06:08:05.226Z,1116
2019-03-22T06:09:04.936Z,1156
2019-03-22T06:10:05.220Z,1192
2019-03-22T06:11:05.160Z,1228
2019-03-22T06:12:05.202Z,1236
2019-03-22T06:13:05.174Z,1212
2019-03-22T06:14:04.933Z,1188
2019-03-22T06:15:05.120Z,1184
2019-03-22T06:16:05.131Z,1224
2019-03-22T06:17:05.117Z,1204
2019-03-22T06:18:05.140Z,1108
2019-03-22T06:19:05.161Z,1108
2019-03-22T06:20:05.206Z,1184
2019-03-22T06:21:05.077Z,1236
2019-03-22T06:22:05.057Z,1252
2019-03-22T06:23:05.097Z,1268
2019-03-22T06:24:05.064Z,1264
2019-03-22T06:25:05.137Z,1204
2019-03-22T06:26:05.074Z,1120
2019-03-22T06:27:05.052Z,1144
2019-03-22T06:28:05.006Z,1204
2019-03-22T06:29:05.104Z,1192
2019-03-22T06:30:05.123Z,1204
2019-03-22T06:31:05.038Z,1256
2019-03-22T06:32:04.972Z,1348
2019-03-22T06:33:04.970Z,1540
2019-03-22T06:34:04.995Z,1560
2019-03-22T06:35:05.120Z,1680
2019-03-22T06:36:04.935Z,1784
2019-03-22T06:37:04.918Z,1820
2019-03-22T06:38:04.912Z,1836
2019-03-22T06:39:04.938Z,1872
2019-03-22T06:40:05.091Z,1848
2019-03-22T06:41:04.913Z,1740
2019-03-22T06:42:07.711Z,1760
2019-03-22T06:43:04.895Z,2004
2019-03-22T06:44:04.864Z,1916
2019-03-22T06:45:05.053Z,1856
2019-03-22T06:46:04.879Z,1996
2019-03-22T06:47:04.824Z,1956
2019-03-22T06:48:04.827Z,1976
2019-03-22T06:49:04.808Z,2108
2019-03-22T06:50:04.927Z,2232
2019-03-22T06:51:04.834Z,2372
2019-03-22T06:52:04.782Z,2464
2019-03-22T06:53:04.773Z,2440
2019-03-22T06:54:04.750Z,2364
2019-03-22T06:55:04.785Z,2176
2019-03-22T06:56:04.744Z,1996
2019-03-22T06:57:04.729Z,1992
2019-03-22T06:58:04.753Z,2020
2019-03-22T06:59:04.216Z,2112
2019-03-22T07:00:13.847Z,2292
2019-03-22T07:01:04.698Z,2444
2019-03-22T07:02:04.715Z,2540
2019-03-22T07:03:04.662Z,2600
2019-03-22T07:04:04.676Z,2552
2019-03-22T07:05:04.654Z,2508
2019-03-22T07:06:04.688Z,2496
2019-03-22T07:07:04.664Z,2412
2019-03-22T07:08:04.629Z,2372
2019-03-22T07:09:04.626Z,2400
2019-03-22T07:10:04.598Z,2460
2019-03-22T07:11:04.656Z,2516
2019-03-22T07:12:04.602Z,2596
2019-03-22T07:13:04.619Z,2716
2019-03-22T07:14:04.579Z,2740
2019-03-22T07:15:04.598Z,2800
2019-03-22T07:16:04.552Z,2904
2019-03-22T07:17:06.143Z,2948
2019-03-22T07:18:04.520Z,3080
2019-03-22T07:19:04.557Z,3164
2019-03-22T07:20:04.538Z,3212
2019-03-22T07:21:04.529Z,3196
2019-03-22T07:22:04.483Z,3056
2019-03-22T07:23:04.521Z,2920
2019-03-22T07:24:04.484Z,2936
2019-03-22T07:25:04.469Z,3192
2019-03-22T07:26:04.448Z,3452
2019-03-22T07:27:04.486Z,3604
2019-03-22T07:28:04.449Z,3740
2019-03-22T07:29:04.534Z,3756
2019-03-22T07:30:04.437Z,3632
2019-03-22T07:31:04.248Z,3524
2019-03-22T07:32:04.406Z,3440
2019-03-22T07:33:04.420Z,3472
2019-03-22T07:34:04.432Z,3556
2019-03-22T07:35:04.407Z,3600
2019-03-22T07:36:04.390Z,3700
2019-03-22T07:37:04.413Z,3840
2019-03-22T07:38:04.349Z,3924
2019-03-22T07:39:04.415Z,3940
2019-03-22T07:40:04.369Z,4024
2019-03-22T07:41:04.356Z,4144
2019-03-22T07:42:04.352Z,4256
2019-03-22T07:43:04.304Z,4280
2019-03-22T07:44:04.309Z,4264
2019-03-22T07:45:04.274Z,4244
2019-03-22T07:46:04.311Z,4216
2019-03-22T07:47:04.257Z,4148
2019-03-22T07:48:04.279Z,4084
2019-03-22T07:49:04.278Z,4068
2019-03-22T07:50:04.233Z,4148
2019-03-22T07:51:04.268Z,4204
2019-03-22T07:52:04.242Z,4232
2019-03-22T07:53:04.240Z,4180
2019-03-22T07:54:06.113Z,4132
2019-03-22T07:55:04.202Z,4232
2019-03-22T07:56:04.211Z,4460
2019-03-22T07:57:03.972Z,4740
2019-03-22T07:58:04.204Z,5020
2019-03-22T07:59:04.160Z,5244
2019-03-22T08:00:04.177Z,5352
2019-03-22T08:01:04.156Z,5356
2019-03-22T08:02:04.175Z,5352
2019-03-22T08:03:04.132Z,5304
2019-03-22T08:04:04.154Z,5172
2019-03-22T08:05:04.133Z,5056
2019-03-22T08:06:04.139Z,5092
2019-03-22T08:07:06.168Z,5280
2019-03-22T08:08:04.096Z,5448
2019-03-22T08:09:04.081Z,5572
2019-03-22T08:10:04.658Z,5596
2019-03-22T08:11:04.157Z,5540
2019-03-22T08:12:04.061Z,5428
2019-03-22T08:13:03.809Z,5292
2019-03-22T08:14:04.140Z,5112
2019-03-22T08:15:04.053Z,5152
2019-03-22T08:16:04.917Z,5256
2019-03-22T08:17:04.023Z,5364
2019-03-22T08:18:04.497Z,5460
2019-03-22T08:19:03.997Z,5540
2019-03-22T08:20:04.639Z,5576
2019-03-22T08:21:04.022Z,5564
2019-03-22T08:22:04.054Z,5524
2019-03-22T08:23:04.004Z,5484
2019-03-22T08:24:04.031Z,5468
2019-03-22T08:25:04.010Z,5444
2019-03-22T08:26:04.015Z,5400
2019-03-22T08:27:03.949Z,5364
2019-03-22T08:28:03.977Z,5344
2019-03-22T08:29:04.018Z,5340
2019-03-22T08:30:03.957Z,5292
2019-03-22T08:31:05.506Z,5216
2019-03-22T08:32:03.934Z,5172
2019-03-22T08:33:03.692Z,5192
2019-03-22T08:34:03.957Z,5316
2019-03-22T08:35:03.937Z,5484
2019-03-22T08:36:03.755Z,5648
2019-03-22T08:37:03.892Z,5768
2019-03-22T08:38:03.932Z,5852
2019-03-22T08:39:03.907Z,5868
2019-03-22T08:40:03.925Z,5864
2019-03-22T08:41:03.955Z,5868
2019-03-22T08:42:03.808Z,5868
2019-03-22T08:43:03.866Z,5892
2019-03-22T08:44:05.449Z,5952
2019-03-22T08:45:03.851Z,6020
2019-03-22T08:46:03.839Z,6072
2019-03-22T08:47:03.783Z,6116
2019-03-22T08:48:03.863Z,6068
2019-03-22T08:49:04.069Z,6008
2019-03-22T08:50:03.817Z,5936
2019-03-22T08:51:03.810Z,5968
2019-03-22T08:52:03.889Z,6028
2019-03-22T08:53:03.841Z,6084
2019-03-22T08:54:03.504Z,6180
2019-03-22T08:55:03.749Z,6316
2019-03-22T08:56:03.829Z,6508
2019-03-22T08:57:03.719Z,6704
2019-03-22T08:58:03.830Z,6912
2019-03-22T08:59:03.819Z,7088
2019-03-22T09:00:03.739Z,7072
2019-03-22T09:01:05.272Z,6928
2019-03-22T09:02:03.782Z,6760
2019-03-22T09:03:03.681Z,6656
2019-03-22T09:04:03.742Z,6528
2019-03-22T09:05:03.738Z,6328
2019-03-22T09:06:03.698Z,6276
2019-03-22T09:07:06.201Z,6272
2019-03-22T09:08:03.791Z,6336
2019-03-22T09:09:03.650Z,6440
2019-03-22T09:10:03.797Z,6484
2019-03-22T09:11:03.637Z,6444
2019-03-22T09:12:03.394Z,6476
2019-03-22T09:13:03.733Z,6564
2019-03-22T09:14:03.747Z,6656
2019-03-22T09:15:03.688Z,6772
2019-03-22T09:16:03.628Z,6776
2019-03-22T09:17:03.602Z,6852
2019-03-22T09:18:03.579Z,6960
2019-03-22T09:19:03.593Z,7140
2019-03-22T09:20:03.559Z,7428
2019-03-22T09:21:03.561Z,7708
2019-03-22T09:22:06.372Z,7968
2019-03-22T09:23:03.587Z,8080
2019-03-22T09:24:03.554Z,8080
2019-03-22T09:25:03.527Z,7912
2019-03-22T09:26:03.586Z,7748
2019-03-22T09:27:03.622Z,7376
2019-03-22T09:28:03.586Z,7200
2019-03-22T09:29:03.570Z,7208
2019-03-22T09:30:03.456Z,7236
2019-03-22T09:31:17.348Z,7360
2019-03-22T09:32:03.557Z,7392
2019-03-22T09:33:03.566Z,7396
2019-03-22T09:34:03.661Z,7296
2019-03-22T09:35:04.639Z,7188
2019-03-22T09:36:03.535Z,7036
2019-03-22T09:37:03.586Z,6936
2019-03-22T09:38:15.196Z,6972
2019-03-22T09:39:03.453Z,6992
2019-03-22T09:40:03.170Z,6932
2019-03-22T09:41:03.332Z,7064
2019-03-22T09:42:03.116Z,7200
2019-03-22T09:43:03.415Z,7284
2019-03-22T09:44:03.445Z,7312
2019-03-22T09:45:03.365Z,7216
2019-03-22T09:46:03.346Z,7260
2019-03-22T09:47:03.186Z,7340
2019-03-22T09:48:06.068Z,7416
2019-03-22T09:49:03.531Z,7440
2019-03-22T09:50:03.387Z,7472
2019-03-22T09:51:03.320Z,7496
2019-03-22T09:52:03.374Z,7516
2019-03-22T09:53:03.358Z,7584
2019-03-22T09:54:03.366Z,7660
2019-03-22T09:55:17.187Z,7776
2019-03-22T09:56:03.307Z,7784
2019-03-22T09:57:03.336Z,7780
2019-03-22T09:58:03.304Z,7900
2019-03-22T09:59:03.435Z,8016
2019-03-22T10:00:03.349Z,8144
2019-03-22T10:01:03.579Z,8220
2019-03-22T10:02:03.256Z,8304
2019-03-22T10:03:03.269Z,8240
2019-03-22T10:04:03.348Z,8292
2019-03-22T10:05:03.283Z,8304
2019-03-22T10:06:03.488Z,8440
2019-03-22T10:07:03.239Z,8636
2019-03-22T10:08:03.435Z,8692
2019-03-22T10:09:07.592Z,8552
2019-03-22T10:10:03.223Z,8296
2019-03-22T10:11:03.190Z,8048
2019-03-22T10:12:03.248Z,7820
2019-03-22T10:13:03.191Z,7572
2019-03-22T10:14:03.216Z,7540
2019-03-22T10:15:03.222Z,7596
2019-03-22T10:16:03.102Z,7452
2019-03-22T10:17:03.246Z,7280
2019-03-22T10:18:03.231Z,7164
2019-03-22T10:19:03.218Z,7336
2019-03-22T10:20:02.898Z,7572
2019-03-22T10:21:03.181Z,7656
2019-03-22T10:22:03.338Z,7692
2019-03-22T10:23:03.085Z,7692
2019-03-22T10:24:03.143Z,7680
2019-03-22T10:25:03.167Z,7700
2019-03-22T10:26:03.061Z,7784
2019-03-22T10:27:05.059Z,7800
2019-03-22T10:28:03.115Z,7820
2019-03-22T10:29:03.071Z,7900
2019-03-22T10:30:03.128Z,7952
2019-03-22T10:31:03.004Z,8020
2019-03-22T10:32:03.107Z,8024
2019-03-22T10:33:03.094Z,8076
2019-03-22T10:34:03.108Z,8168
2019-03-22T10:35:02.851Z,8068
2019-03-22T10:36:03.200Z,8000
2019-03-22T10:37:02.953Z,7968
2019-03-22T10:38:30.767Z,8084
2019-03-22T10:39:03.104Z,8144
2019-03-22T10:40:02.996Z,8224
2019-03-22T10:41:02.847Z,8284
2019-03-22T10:42:02.983Z,8340
2019-03-22T10:43:03.144Z,8324
2019-03-22T10:44:03.080Z,8316
2019-03-22T10:45:03.056Z,8332
2019-03-22T10:46:02.916Z,8424
2019-03-22T10:47:02.967Z,8532
2019-03-22T10:48:02.881Z,8624
2019-03-22T10:49:02.961Z,8580
2019-03-22T10:50:03.009Z,8460
2019-03-22T10:51:02.970Z,8356
2019-03-22T10:52:07.065Z,8368
2019-03-22T10:53:02.998Z,8356
2019-03-22T10:54:02.981Z,8396
2019-03-22T10:55:29.972Z,8680
2019-03-22T10:56:02.941Z,8868
2019-03-22T10:57:02.844Z,9272
2019-03-22T10:58:02.819Z,9524
2019-03-22T10:59:02.831Z,9580
2019-03-22T11:00:02.781Z,9596
2019-03-22T11:01:02.816Z,9552
2019-03-22T11:02:12.374Z,9640
2019-03-22T11:03:02.805Z,9852
2019-03-22T11:04:03.273Z,10080
2019-03-22T11:05:04.710Z,10316
2019-03-22T11:06:02.742Z,10368
2019-03-22T11:07:02.733Z,10348
2019-03-22T11:08:02.754Z,10564
2019-03-22T11:09:02.757Z,10552
2019-03-22T11:10:02.769Z,10264
2019-03-22T11:11:02.707Z,9780
2019-03-22T11:12:11.642Z,9492
2019-03-22T11:13:02.794Z,9404
2019-03-22T11:14:02.680Z,9448
2019-03-22T11:15:02.719Z,9456
2019-03-22T11:16:02.937Z,9420
2019-03-22T11:17:02.694Z,9440
2019-03-22T11:18:02.659Z,9612
2019-03-22T11:19:02.694Z,9752
2019-03-22T11:20:04.640Z,9852
2019-03-22T11:21:12.080Z,9988
2019-03-22T11:22:02.625Z,10084
2019-03-22T11:23:02.385Z,10180
2019-03-22T11:24:02.645Z,10448
2019-03-22T11:25:02.481Z,10700
2019-03-22T11:26:11.179Z,10868
2019-03-22T11:27:02.601Z,10860
2019-03-22T11:28:02.622Z,10572
2019-03-22T11:29:02.583Z,10280
2019-03-22T11:30:02.751Z,10020
2019-03-22T11:31:11.745Z,9976
2019-03-22T11:32:12.045Z,10156
2019-03-22T11:33:02.576Z,10444
2019-03-22T11:34:02.601Z,10800
2019-03-22T11:35:02.751Z,11136
2019-03-22T11:36:02.557Z,11480
2019-03-22T11:37:02.573Z,11880
2019-03-22T11:38:02.568Z,12320
2019-03-22T11:39:02.281Z,12760
2019-03-22T11:40:02.804Z,13108
2019-03-22T11:41:02.539Z,13112
2019-03-22T11:42:02.552Z,12824
2019-03-22T11:43:12.617Z,12640
2019-03-22T11:44:02.529Z,12500
2019-03-22T11:45:02.695Z,12400
2019-03-22T11:46:02.522Z,12464
2019-03-22T11:47:02.476Z,12172
2019-03-22T11:48:03.037Z,11676
2019-03-22T11:49:02.499Z,11608
2019-03-22T11:50:02.545Z,11596
2019-03-22T11:51:02.448Z,11404
2019-03-22T11:52:02.484Z,11216
2019-03-22T11:53:02.470Z,10956
2019-03-22T11:54:02.428Z,10716
2019-03-22T11:55:02.424Z,10552
2019-03-22T11:56:02.441Z,10584
2019-03-22T11:57:02.448Z,10716
2019-03-22T11:58:02.448Z,9772
2019-03-22T11:59:02.401Z,9808
2019-03-22T12:00:02.523Z,9908
2019-03-22T12:01:02.391Z,10064
2019-03-22T12:02:02.433Z,10164
2019-03-22T12:03:02.383Z,10232
2019-03-22T12:04:02.393Z,10344
2019-03-22T12:05:02.408Z,10440
2019-03-22T12:06:02.362Z,10580
2019-03-22T12:07:02.402Z,10688
2019-03-22T12:08:02.377Z,10728
2019-03-22T12:09:02.389Z,10732
2019-03-22T12:10:02.336Z,10664
2019-03-22T12:11:02.342Z,10668
2019-03-22T12:12:02.352Z,10724
2019-03-22T12:13:02.367Z,10680
2019-03-22T12:14:02.363Z,10664
2019-03-22T12:15:02.312Z,10800
2019-03-22T12:16:02.329Z,10936
2019-03-22T12:17:03.860Z,11024
2019-03-22T12:18:02.332Z,11076
2019-03-22T12:19:02.290Z,11180
2019-03-22T12:20:02.323Z,11500
2019-03-22T12:21:03.771Z,11896
2019-03-22T12:22:02.314Z,12048
2019-03-22T12:23:02.258Z,12096
2019-03-22T12:24:02.274Z,12328
2019-03-22T12:25:02.263Z,12580
2019-03-22T12:26:02.296Z,13020
2019-03-22T12:27:02.275Z,13484
2019-03-22T12:28:02.259Z,13940
2019-03-22T12:29:02.238Z,14332
2019-03-22T12:30:02.271Z,14812
2019-03-22T12:31:02.221Z,15316
2019-03-22T12:32:02.232Z,15596
2019-03-22T12:33:02.230Z,15856
2019-03-22T12:34:04.146Z,15928
2019-03-22T12:35:02.214Z,15708
2019-03-22T12:36:02.242Z,15460
2019-03-22T12:37:02.206Z,14888
2019-03-22T12:38:02.587Z,14380
2019-03-22T12:39:02.176Z,13956
2019-03-22T12:40:01.941Z,13560
2019-03-22T12:41:02.185Z,13076
2019-03-22T12:42:02.201Z,12580
2019-03-22T12:43:03.783Z,12228
2019-03-22T12:44:02.176Z,12148
2019-03-22T12:45:02.457Z,12152
2019-03-22T12:46:02.138Z,12012
2019-03-22T12:47:02.180Z,12000
2019-03-22T12:48:02.147Z,12272
2019-03-22T12:49:02.169Z,12728
2019-03-22T12:50:02.119Z,13312
2019-03-22T12:51:02.157Z,13980
2019-03-22T12:52:02.106Z,14140
2019-03-22T12:53:02.145Z,13956
2019-03-22T12:54:02.102Z,13800
2019-03-22T12:55:02.138Z,13580
2019-03-22T12:56:02.124Z,13380
2019-03-22T12:57:02.098Z,13124
2019-03-22T12:58:04.287Z,12812
2019-03-22T12:59:02.118Z,12540
2019-03-22T13:00:02.089Z,12176
2019-03-22T13:01:02.079Z,11900
2019-03-22T13:02:02.064Z,11804
2019-03-22T13:03:02.101Z,11788
2019-03-22T13:04:02.075Z,11736
2019-03-22T13:05:02.090Z,11744
2019-03-22T13:06:02.040Z,11924
2019-03-22T13:07:02.077Z,12040
2019-03-22T13:08:02.040Z,12116
2019-03-22T13:09:02.071Z,12200
2019-03-22T13:10:02.024Z,12380
2019-03-22T13:11:01.625Z,12512
2019-03-22T13:12:02.036Z,12652
2019-03-22T13:13:02.042Z,12688
2019-03-22T13:14:02.001Z,12648
2019-03-22T13:15:03.855Z,12724
2019-03-22T13:16:02.022Z,12736
2019-03-22T13:17:02.018Z,12728
2019-03-22T13:18:02.029Z,12600
2019-03-22T13:19:01.982Z,12864
2019-03-22T13:20:01.999Z,13104
2019-03-22T13:21:01.996Z,12864
2019-03-22T13:22:01.996Z,12616
2019-03-22T13:23:01.996Z,12384
2019-03-22T13:24:01.953Z,12352
2019-03-22T13:25:01.982Z,12468
2019-03-22T13:26:01.947Z,12572
2019-03-22T13:27:01.987Z,12592
2019-03-22T13:28:01.959Z,12688
2019-03-22T13:29:01.960Z,12840
2019-03-22T13:30:01.922Z,12892
2019-03-22T13:31:01.679Z,12784
2019-03-22T13:32:01.938Z,12516
2019-03-22T13:33:01.935Z,12288
2019-03-22T13:34:01.895Z,12120
2019-03-22T13:35:01.931Z,11984
2019-03-22T13:36:01.916Z,11816
2019-03-22T13:37:01.925Z,11704
2019-03-22T13:38:01.882Z,11560
2019-03-22T13:39:01.916Z,11392
2019-03-22T13:40:01.872Z,11364
2019-03-22T13:41:01.889Z,11428
2019-03-22T13:42:01.867Z,11500
2019-03-22T13:43:01.914Z,11524
2019-03-22T13:44:01.871Z,11356
2019-03-22T13:45:01.871Z,10636